createdAt,value
2019-05-29T00:01:00.059Z,8.90
2019-05-29T00:02:06.195Z,9.00
2019-05-29T00:03:12.501Z,9.00
2019-05-29T00:04:18.542Z,9.00
2019-05-29T00:05:24.228Z,9.00
2019-05-29T00:06:30.536Z,9.00
2019-05-29T00:07:35.644Z,9.00
2019-05-29T00:08:41.479Z,9.00
2019-05-29T00:09:47.239Z,9.00
2019-05-29T00:10:53.612Z,9.00
2019-05-29T00:11:59.142Z,8.90
2019-05-29T00:13:06.209Z,8.90
2019-05-29T00:14:25.023Z,9.00
2019-05-29T00:15:20.283Z,9.00
2019-05-29T00:16:25.764Z,9.00
2019-05-29T00:17:32.093Z,8.90
2019-05-29T00:18:37.564Z,8.90
2019-05-29T00:19:43.864Z,9.00
2019-05-29T00:20:50.265Z,8.90
2019-05-29T00:21:56.315Z,8.90
2019-05-29T00:23:01.967Z,9.00
2019-05-29T00:24:08.331Z,8.90
2019-05-29T00:25:14.749Z,8.90
2019-05-29T00:26:21.154Z,8.90
2019-05-29T00:27:26.507Z,8.90
2019-05-29T00:28:32.780Z,8.90
2019-05-29T00:29:38.552Z,8.90
2019-05-29T00:30:44.742Z,8.90
2019-05-29T00:31:49.927Z,9.00
2019-05-29T00:32:55.622Z,9.00
2019-05-29T00:34:01.067Z,9.00
2019-05-29T00:35:10.353Z,9.00
2019-05-29T00:36:16.518Z,9.00
2019-05-29T00:37:22.614Z,9.00
2019-05-29T00:38:28.184Z,9.00
2019-05-29T00:39:34.405Z,8.90
2019-05-29T00:40:39.753Z,9.00
2019-05-29T00:41:46.009Z,8.90
2019-05-29T00:42:51.943Z,8.90
2019-05-29T00:43:57.830Z,8.90
2019-05-29T00:45:03.298Z,8.90
2019-05-29T00:46:09.287Z,8.90
2019-05-29T00:47:15.693Z,8.90
2019-05-29T00:48:21.905Z,8.90
2019-05-29T00:49:27.735Z,8.90
2019-05-29T00:50:35.032Z,8.90
2019-05-29T00:51:40.514Z,8.90
2019-05-29T00:52:46.280Z,8.80
2019-05-29T00:53:52.063Z,8.80
2019-05-29T00:54:57.610Z,8.80
2019-05-29T00:56:02.644Z,8.80
2019-05-29T00:57:09.269Z,8.80
2019-05-29T00:58:14.909Z,8.70
2019-05-29T00:59:20.752Z,8.70
2019-05-29T01:00:26.326Z,8.70
2019-05-29T01:01:32.735Z,8.70
2019-05-29T01:02:38.406Z,8.60
2019-05-29T01:03:44.525Z,8.70
2019-05-29T01:04:50.106Z,8.70
2019-05-29T01:05:56.242Z,8.70
2019-05-29T01:07:01.754Z,8.70
2019-05-29T01:08:08.017Z,8.70
2019-05-29T01:09:14.441Z,8.60
2019-05-29T01:10:20.934Z,8.60
2019-05-29T01:11:26.824Z,8.60
2019-05-29T01:12:32.835Z,8.60
2019-05-29T01:13:38.643Z,8.50
2019-05-29T01:14:50.195Z,8.50
2019-05-29T01:15:52.062Z,8.50
2019-05-29T01:16:57.648Z,8.50
2019-05-29T01:18:03.391Z,8.50
2019-05-29T01:19:27.803Z,8.50
2019-05-29T01:20:33.523Z,8.50
2019-05-29T01:21:39.864Z,8.40
2019-05-29T01:22:45.296Z,8.40
2019-05-29T01:23:50.879Z,8.40
2019-05-29T01:24:56.009Z,8.40
2019-05-29T01:26:02.266Z,8.40
2019-05-29T01:27:07.866Z,8.40
2019-05-29T01:28:14.709Z,8.30
2019-05-29T01:29:19.685Z,8.20
2019-05-29T01:30:26.034Z,8.20
2019-05-29T01:31:31.684Z,8.20
2019-05-29T01:32:37.700Z,8.20
2019-05-29T01:33:43.467Z,8.20
2019-05-29T01:34:49.777Z,8.20
2019-05-29T01:35:55.344Z,8.20
2019-05-29T01:37:01.804Z,8.20
2019-05-29T01:38:07.602Z,8.20
2019-05-29T01:39:15.070Z,8.10
2019-05-29T01:40:26.147Z,8.10
2019-05-29T01:41:31.077Z,8.20
2019-05-29T01:42:36.633Z,8.10
2019-05-29T01:43:42.150Z,8.10
2019-05-29T01:44:46.893Z,8.10
2019-05-29T01:45:52.272Z,8.00
2019-05-29T01:46:57.044Z,8.00
2019-05-29T01:48:02.519Z,8.10
2019-05-29T01:49:07.582Z,8.10
2019-05-29T01:50:13.169Z,8.10
2019-05-29T01:51:17.879Z,7.90
2019-05-29T01:52:23.820Z,7.90
2019-05-29T01:53:28.659Z,8.00
2019-05-29T01:54:34.289Z,7.90
2019-05-29T01:55:39.172Z,7.90
2019-05-29T01:56:44.512Z,7.90
2019-05-29T01:57:49.444Z,7.90
2019-05-29T01:58:54.953Z,7.90
2019-05-29T02:00:00.147Z,7.90
2019-05-29T02:01:05.574Z,7.90
2019-05-29T02:02:10.560Z,7.90
2019-05-29T02:03:16.019Z,7.90
2019-05-29T02:04:21.870Z,7.80
2019-05-29T02:05:30.709Z,7.80
2019-05-29T02:06:35.887Z,7.90
2019-05-29T02:07:41.260Z,7.80
2019-05-29T02:08:46.112Z,7.80
2019-05-29T02:09:51.529Z,7.80
2019-05-29T02:10:56.584Z,7.90
2019-05-29T02:12:02.084Z,7.80
2019-05-29T02:13:06.868Z,7.90
2019-05-29T02:14:12.392Z,7.80
2019-05-29T02:15:27.043Z,7.80
2019-05-29T02:16:24.971Z,7.80
2019-05-29T02:17:29.830Z,7.80
2019-05-29T02:18:35.398Z,7.80
2019-05-29T02:19:40.171Z,7.80
2019-05-29T02:20:45.555Z,7.70
2019-05-29T02:21:50.308Z,7.70
2019-05-29T02:22:55.651Z,7.70
2019-05-29T02:24:00.424Z,7.70
2019-05-29T02:25:07.005Z,7.70
2019-05-29T02:26:11.991Z,7.70
2019-05-29T02:27:17.591Z,7.70
2019-05-29T02:28:22.590Z,7.60
2019-05-29T02:29:28.176Z,7.70
2019-05-29T02:30:32.918Z,7.70
2019-05-29T02:31:38.409Z,7.60
2019-05-29T02:32:43.276Z,7.60
2019-05-29T02:33:48.767Z,7.60
2019-05-29T02:34:53.510Z,7.70
2019-05-29T02:35:58.909Z,7.70
2019-05-29T02:37:03.883Z,7.70
2019-05-29T02:38:09.201Z,7.70
2019-05-29T02:39:14.146Z,7.70
2019-05-29T02:40:21.159Z,7.70
2019-05-29T02:41:28.401Z,7.60
2019-05-29T02:42:33.804Z,7.60
2019-05-29T02:43:38.677Z,7.50
2019-05-29T02:44:44.195Z,7.60
2019-05-29T02:45:54.222Z,7.60
2019-05-29T02:46:56.217Z,7.70
2019-05-29T02:48:01.089Z,7.70
2019-05-29T02:49:06.454Z,7.60
2019-05-29T02:50:11.909Z,7.70
2019-05-29T02:51:17.373Z,7.70
2019-05-29T02:52:22.169Z,7.70
2019-05-29T02:53:28.696Z,7.60
2019-05-29T02:54:33.664Z,7.60
2019-05-29T02:55:39.101Z,7.60
2019-05-29T02:56:44.213Z,7.60
2019-05-29T02:57:49.959Z,7.60
2019-05-29T02:58:54.777Z,7.60
2019-05-29T03:00:00.341Z,7.60
2019-05-29T03:01:05.613Z,7.60
2019-05-29T03:02:11.032Z,7.70
2019-05-29T03:03:15.896Z,7.60
2019-05-29T03:04:21.747Z,7.60
2019-05-29T03:05:28.083Z,7.60
2019-05-29T03:06:33.643Z,7.60
2019-05-29T03:07:38.717Z,7.60
2019-05-29T03:08:44.484Z,7.70
2019-05-29T03:09:49.227Z,7.60
2019-05-29T03:10:54.650Z,7.70
2019-05-29T03:12:00.413Z,7.70
2019-05-29T03:13:06.496Z,7.70
2019-05-29T03:14:11.369Z,7.70
2019-05-29T03:15:17.172Z,7.70
2019-05-29T03:16:23.825Z,7.70
2019-05-29T03:17:29.771Z,7.70
2019-05-29T03:18:34.997Z,7.70
2019-05-29T03:19:40.793Z,7.70
2019-05-29T03:20:45.744Z,7.70
2019-05-29T03:21:51.206Z,7.70
2019-05-29T03:22:55.988Z,7.60
2019-05-29T03:24:01.357Z,7.60
2019-05-29T03:25:06.584Z,7.60
2019-05-29T03:26:12.083Z,7.70
2019-05-29T03:27:16.976Z,7.70
2019-05-29T03:28:22.412Z,7.70
2019-05-29T03:29:28.168Z,7.70
2019-05-29T03:30:40.559Z,7.70
2019-05-29T03:31:47.232Z,7.70
2019-05-29T03:32:49.101Z,7.70
2019-05-29T03:33:54.117Z,7.80
2019-05-29T03:34:59.682Z,7.80
2019-05-29T03:36:05.019Z,7.80
2019-05-29T03:37:10.779Z,7.90
2019-05-29T03:38:15.703Z,7.90
2019-05-29T03:39:21.289Z,7.90
2019-05-29T03:40:28.749Z,7.90
2019-05-29T03:41:34.857Z,7.90
2019-05-29T03:42:40.240Z,7.90
2019-05-29T03:43:45.925Z,7.90
2019-05-29T03:44:50.829Z,7.90
2019-05-29T03:45:56.529Z,7.90
2019-05-29T03:47:01.726Z,8.00
2019-05-29T03:48:07.391Z,8.00
2019-05-29T03:49:12.985Z,8.00
2019-05-29T03:50:18.922Z,8.00
2019-05-29T03:51:24.339Z,8.00
2019-05-29T03:52:30.374Z,7.90
2019-05-29T03:53:37.960Z,7.90
2019-05-29T03:54:43.603Z,7.90
2019-05-29T03:55:48.877Z,7.90
2019-05-29T03:56:54.490Z,7.90
2019-05-29T03:57:59.823Z,7.90
2019-05-29T03:59:05.366Z,7.90
2019-05-29T04:00:11.276Z,7.90
2019-05-29T04:01:17.252Z,7.90
2019-05-29T04:02:22.795Z,7.90
2019-05-29T04:03:29.502Z,7.90
2019-05-29T04:04:38.145Z,7.90
2019-05-29T04:05:44.257Z,8.00
2019-05-29T04:06:49.828Z,7.90
2019-05-29T04:07:55.643Z,7.90
2019-05-29T04:09:01.320Z,7.90
2019-05-29T04:10:07.860Z,7.90
2019-05-29T04:11:13.603Z,7.90
2019-05-29T04:12:20.194Z,7.90
2019-05-29T04:13:27.466Z,7.80
2019-05-29T04:14:35.517Z,7.80
2019-05-29T04:15:42.341Z,7.80
2019-05-29T04:16:59.382Z,7.80
2019-05-29T04:17:57.897Z,7.80
2019-05-29T04:19:05.850Z,7.80
2019-05-29T04:20:11.642Z,7.80
2019-05-29T04:21:20.513Z,7.80
2019-05-29T04:22:30.293Z,7.80
2019-05-29T04:23:38.106Z,7.80
2019-05-29T04:24:44.127Z,7.80
2019-05-29T04:25:52.579Z,7.90
2019-05-29T04:27:00.408Z,7.90
2019-05-29T04:28:09.698Z,8.00
2019-05-29T04:29:15.599Z,8.00
2019-05-29T04:30:22.197Z,7.90
2019-05-29T04:31:28.224Z,7.90
2019-05-29T04:32:34.448Z,7.90
2019-05-29T04:33:40.410Z,7.80
2019-05-29T04:34:46.805Z,7.80
2019-05-29T04:35:51.789Z,7.90
2019-05-29T04:36:57.897Z,7.90
2019-05-29T04:38:03.571Z,8.00
2019-05-29T04:39:09.328Z,8.00
2019-05-29T04:40:15.754Z,7.90
2019-05-29T04:41:21.937Z,8.00
2019-05-29T04:42:28.901Z,8.10
2019-05-29T04:43:35.646Z,8.10
2019-05-29T04:44:41.560Z,8.20
2019-05-29T04:45:47.844Z,8.20
2019-05-29T04:47:09.519Z,8.30
2019-05-29T04:48:01.693Z,8.30
2019-05-29T04:49:07.334Z,8.40
2019-05-29T04:50:13.678Z,8.40
2019-05-29T04:51:18.735Z,8.50
2019-05-29T04:52:24.438Z,8.50
2019-05-29T04:53:31.289Z,8.60
2019-05-29T04:54:37.611Z,8.60
2019-05-29T04:55:43.599Z,8.70
2019-05-29T04:56:49.994Z,8.70
2019-05-29T04:57:55.497Z,8.70
2019-05-29T04:59:01.743Z,8.90
2019-05-29T05:00:07.147Z,8.90
2019-05-29T05:01:12.731Z,8.90
2019-05-29T05:02:18.108Z,8.90
2019-05-29T05:03:24.770Z,9.00
2019-05-29T05:04:30.977Z,8.90
2019-05-29T05:05:37.608Z,8.90
2019-05-29T05:06:43.657Z,8.90
2019-05-29T05:07:49.813Z,9.00
2019-05-29T05:08:58.521Z,9.00
2019-05-29T05:10:04.909Z,9.10
2019-05-29T05:11:11.448Z,9.10
2019-05-29T05:12:17.730Z,9.10
2019-05-29T05:13:23.473Z,9.20
2019-05-29T05:14:29.623Z,9.20
2019-05-29T05:15:37.864Z,9.20
2019-05-29T05:16:44.509Z,9.20
2019-05-29T05:17:49.644Z,9.20
2019-05-29T05:18:55.693Z,9.20
2019-05-29T05:20:01.452Z,9.10
2019-05-29T05:21:07.782Z,9.00
2019-05-29T05:22:13.459Z,9.10
2019-05-29T05:23:19.700Z,9.10
2019-05-29T05:24:25.468Z,9.10
2019-05-29T05:25:32.473Z,9.10
2019-05-29T05:26:38.455Z,9.20
2019-05-29T05:27:45.206Z,9.20
2019-05-29T05:28:51.614Z,9.20
2019-05-29T05:29:57.932Z,9.10
2019-05-29T05:31:03.004Z,9.10
2019-05-29T05:32:09.143Z,9.10
2019-05-29T05:33:14.806Z,9.10
2019-05-29T05:34:21.213Z,9.10
2019-05-29T05:35:26.845Z,9.00
2019-05-29T05:36:34.460Z,9.00
2019-05-29T05:37:41.028Z,9.00
2019-05-29T05:38:47.256Z,9.10
2019-05-29T05:39:52.623Z,9.20
2019-05-29T05:40:58.876Z,9.20
2019-05-29T05:42:04.466Z,9.20
2019-05-29T05:43:23.160Z,9.30
2019-05-29T05:44:18.094Z,9.30
2019-05-29T05:45:24.231Z,9.40
2019-05-29T05:46:32.933Z,9.50
2019-05-29T05:47:54.664Z,9.40
2019-05-29T05:48:46.367Z,9.50
2019-05-29T05:49:52.681Z,9.50
2019-05-29T05:50:58.583Z,9.50
2019-05-29T05:52:04.210Z,9.60
2019-05-29T05:53:09.961Z,9.70
2019-05-29T05:54:15.732Z,9.70
2019-05-29T05:55:21.015Z,9.70
2019-05-29T05:56:27.318Z,9.70
2019-05-29T05:57:33.529Z,9.70
2019-05-29T05:58:39.964Z,9.80
2019-05-29T05:59:45.723Z,9.80
2019-05-29T06:00:51.966Z,9.90
2019-05-29T06:01:57.740Z,9.80
2019-05-29T06:03:03.568Z,9.80
2019-05-29T06:04:08.668Z,9.80
2019-05-29T06:05:14.203Z,9.90
2019-05-29T06:06:19.082Z,10.00
2019-05-29T06:07:24.607Z,10.10
2019-05-29T06:08:29.481Z,10.10
2019-05-29T06:09:36.106Z,10.20
2019-05-29T06:10:42.306Z,10.30
2019-05-29T06:11:48.032Z,10.30
2019-05-29T06:12:53.227Z,10.30
2019-05-29T06:13:58.631Z,10.30
2019-05-29T06:15:03.529Z,10.30
2019-05-29T06:16:09.455Z,10.40
2019-05-29T06:17:14.254Z,10.40
2019-05-29T06:18:21.835Z,10.50
2019-05-29T06:19:26.619Z,10.40
2019-05-29T06:20:32.978Z,10.40
2019-05-29T06:21:38.828Z,10.50
2019-05-29T06:22:45.863Z,10.50
2019-05-29T06:23:51.492Z,10.40
2019-05-29T06:24:57.509Z,10.50
2019-05-29T06:26:03.412Z,10.50
2019-05-29T06:27:09.755Z,10.50
2019-05-29T06:28:15.683Z,10.40
2019-05-29T06:29:21.854Z,10.40
2019-05-29T06:30:28.389Z,10.40
2019-05-29T06:31:35.229Z,10.40
2019-05-29T06:32:41.564Z,10.40
2019-05-29T06:33:47.930Z,10.40
2019-05-29T06:34:53.382Z,10.50
2019-05-29T06:35:59.722Z,10.40
2019-05-29T06:37:08.144Z,10.40
2019-05-29T06:38:14.043Z,10.50
2019-05-29T06:39:19.645Z,10.50
2019-05-29T06:40:36.116Z,10.50
2019-05-29T06:41:42.410Z,10.50
2019-05-29T06:42:48.790Z,10.60
2019-05-29T06:43:54.375Z,10.70
2019-05-29T06:45:00.745Z,10.70
2019-05-29T06:46:06.871Z,10.80
2019-05-29T06:47:12.777Z,10.80
2019-05-29T06:48:40.561Z,10.80
2019-05-29T06:49:33.816Z,10.90
2019-05-29T06:50:39.473Z,10.80
2019-05-29T06:51:45.686Z,10.80
2019-05-29T06:52:51.358Z,10.80
2019-05-29T06:53:57.617Z,10.70
2019-05-29T06:55:03.181Z,10.80
2019-05-29T06:56:09.376Z,10.80
2019-05-29T06:57:14.630Z,10.80
2019-05-29T06:58:20.730Z,10.90
2019-05-29T06:59:26.334Z,11.00
2019-05-29T07:00:35.595Z,11.00
2019-05-29T07:01:41.450Z,11.10
2019-05-29T07:02:48.609Z,11.10
2019-05-29T07:04:10.634Z,11.20
2019-05-29T07:05:03.374Z,11.10
2019-05-29T07:06:09.327Z,11.10
2019-05-29T07:07:15.756Z,11.10
2019-05-29T07:08:37.638Z,11.00
2019-05-29T07:09:29.769Z,11.10
2019-05-29T07:10:36.359Z,11.00
2019-05-29T07:11:43.561Z,11.00
2019-05-29T07:12:49.361Z,11.10
2019-05-29T07:13:55.895Z,11.10
2019-05-29T07:15:01.658Z,11.20
2019-05-29T07:16:08.095Z,11.20
2019-05-29T07:17:13.804Z,11.20
2019-05-29T07:18:19.835Z,11.20
2019-05-29T07:19:38.906Z,11.20
2019-05-29T07:20:33.422Z,11.30
2019-05-29T07:21:40.708Z,11.20
2019-05-29T07:22:47.211Z,11.20
2019-05-29T07:23:53.167Z,11.30
2019-05-29T07:24:59.379Z,11.40
2019-05-29T07:26:05.246Z,11.50
2019-05-29T07:27:13.611Z,11.60
2019-05-29T07:28:18.682Z,11.70
2019-05-29T07:29:24.954Z,11.70
2019-05-29T07:30:32.645Z,11.60
2019-05-29T07:31:39.367Z,11.40
2019-05-29T07:32:50.086Z,11.50
2019-05-29T07:33:52.964Z,11.60
2019-05-29T07:35:03.657Z,11.70
2019-05-29T07:36:06.994Z,11.60
2019-05-29T07:37:12.880Z,11.70
2019-05-29T07:38:19.014Z,11.80
2019-05-29T07:39:24.929Z,11.90
2019-05-29T07:40:35.603Z,11.90
2019-05-29T07:41:39.574Z,12.00
2019-05-29T07:42:53.349Z,12.00
2019-05-29T07:43:53.851Z,12.00
2019-05-29T07:45:00.206Z,12.10
2019-05-29T07:46:05.921Z,12.20
2019-05-29T07:47:12.326Z,12.10
2019-05-29T07:48:17.787Z,12.20
2019-05-29T07:49:38.075Z,12.40
2019-05-29T07:50:31.824Z,12.40
2019-05-29T07:51:38.185Z,12.50
2019-05-29T07:52:45.304Z,12.50
2019-05-29T07:53:51.017Z,12.60
2019-05-29T07:54:56.527Z,12.70
2019-05-29T07:56:03.011Z,12.70
2019-05-29T07:57:09.405Z,12.70
2019-05-29T07:58:15.767Z,12.70
2019-05-29T07:59:21.129Z,12.70
2019-05-29T08:00:35.258Z,12.70
2019-05-29T08:01:35.067Z,12.60
2019-05-29T08:02:43.200Z,12.30
2019-05-29T08:03:49.812Z,12.20
2019-05-29T08:04:56.058Z,12.00
2019-05-29T08:06:02.086Z,12.10
2019-05-29T08:07:08.737Z,12.10
2019-05-29T08:08:14.637Z,12.20
2019-05-29T08:09:20.635Z,12.30
2019-05-29T08:10:26.513Z,12.40
2019-05-29T08:11:32.682Z,12.40
2019-05-29T08:12:42.371Z,12.50
2019-05-29T08:13:46.084Z,12.50
2019-05-29T08:14:51.825Z,12.60
2019-05-29T08:16:02.895Z,12.70
2019-05-29T08:17:05.127Z,12.70
2019-05-29T08:18:11.551Z,12.80
2019-05-29T08:19:17.195Z,12.80
2019-05-29T08:20:23.320Z,12.90
2019-05-29T08:21:28.637Z,12.90
2019-05-29T08:22:35.109Z,12.80
2019-05-29T08:23:42.195Z,12.70
2019-05-29T08:24:49.511Z,12.70
2019-05-29T08:25:55.888Z,12.70
2019-05-29T08:27:02.326Z,12.60
2019-05-29T08:28:08.833Z,12.70
2019-05-29T08:29:15.159Z,12.80
2019-05-29T08:30:22.447Z,12.80
2019-05-29T08:31:28.820Z,12.90
2019-05-29T08:32:34.614Z,12.90
2019-05-29T08:33:40.820Z,13.00
2019-05-29T08:34:47.024Z,13.00
2019-05-29T08:35:59.372Z,13.10
2019-05-29T08:37:06.565Z,13.20
2019-05-29T08:38:07.916Z,13.20
2019-05-29T08:39:13.651Z,13.20
2019-05-29T08:40:22.794Z,13.00
2019-05-29T08:41:28.682Z,13.00
2019-05-29T08:42:34.929Z,13.00
2019-05-29T08:43:40.664Z,13.10
2019-05-29T08:44:47.512Z,13.10
2019-05-29T08:45:53.490Z,13.10
2019-05-29T08:47:09.672Z,13.20
2019-05-29T08:48:06.707Z,13.20
2019-05-29T08:49:12.956Z,13.20
2019-05-29T08:50:19.529Z,13.20
2019-05-29T08:51:25.976Z,13.30
2019-05-29T08:52:31.559Z,13.20
2019-05-29T08:53:37.087Z,13.20
2019-05-29T08:54:42.126Z,13.30
2019-05-29T08:55:48.892Z,13.30
2019-05-29T08:56:54.842Z,13.30
2019-05-29T08:58:01.142Z,13.20
2019-05-29T08:59:06.916Z,13.30
2019-05-29T09:00:13.656Z,13.20
2019-05-29T09:01:18.900Z,13.30
2019-05-29T09:02:24.804Z,13.30
2019-05-29T09:03:30.368Z,13.40
2019-05-29T09:04:36.643Z,13.60
2019-05-29T09:05:42.515Z,13.70
2019-05-29T09:06:49.239Z,13.80
2019-05-29T09:07:54.834Z,13.70
2019-05-29T09:09:01.497Z,13.70
2019-05-29T09:10:10.234Z,13.40
2019-05-29T09:11:15.935Z,13.10
2019-05-29T09:12:21.900Z,12.90
2019-05-29T09:13:28.186Z,12.90
2019-05-29T09:14:33.781Z,13.10
2019-05-29T09:15:39.904Z,13.20
2019-05-29T09:16:45.461Z,13.30
2019-05-29T09:17:50.964Z,13.40
2019-05-29T09:18:56.162Z,13.20
2019-05-29T09:20:02.413Z,13.20
2019-05-29T09:21:08.211Z,13.40
2019-05-29T09:22:14.943Z,13.40
2019-05-29T09:23:20.961Z,13.50
2019-05-29T09:24:27.434Z,13.60
2019-05-29T09:25:33.366Z,13.70
2019-05-29T09:26:39.823Z,13.80
2019-05-29T09:27:45.965Z,13.90
2019-05-29T09:28:53.087Z,14.00
2019-05-29T09:29:58.315Z,14.20
2019-05-29T09:31:04.474Z,14.00
2019-05-29T09:32:09.567Z,13.90
2019-05-29T09:33:18.110Z,13.90
2019-05-29T09:34:24.400Z,13.80
2019-05-29T09:35:30.596Z,13.60
2019-05-29T09:36:36.341Z,13.60
2019-05-29T09:37:42.471Z,13.30
2019-05-29T09:38:48.421Z,13.30
2019-05-29T09:39:54.645Z,13.30
2019-05-29T09:41:00.452Z,13.30
2019-05-29T09:42:06.815Z,13.40
2019-05-29T09:43:12.641Z,13.50
2019-05-29T09:44:33.025Z,13.60
2019-05-29T09:45:26.663Z,13.60
2019-05-29T09:46:32.798Z,13.70
2019-05-29T09:47:38.560Z,13.80
2019-05-29T09:48:49.738Z,13.80
2019-05-29T09:49:52.976Z,13.90
2019-05-29T09:50:59.159Z,13.90
2019-05-29T09:52:04.600Z,14.10
2019-05-29T09:53:11.117Z,14.20
2019-05-29T09:54:16.733Z,14.30
2019-05-29T09:55:23.094Z,14.30
2019-05-29T09:56:28.672Z,14.40
2019-05-29T09:57:34.670Z,14.40
2019-05-29T09:58:40.680Z,14.40
2019-05-29T09:59:47.205Z,14.40
2019-05-29T10:01:16.001Z,14.40
2019-05-29T10:02:05.967Z,14.40
2019-05-29T10:03:08.075Z,14.40
2019-05-29T10:04:14.241Z,14.50
2019-05-29T10:05:21.048Z,14.50
2019-05-29T10:06:27.527Z,14.50
2019-05-29T10:07:33.170Z,14.40
2019-05-29T10:08:39.202Z,14.40
2019-05-29T10:09:45.561Z,14.50
2019-05-29T10:10:51.821Z,14.50
2019-05-29T10:12:00.975Z,14.60
2019-05-29T10:13:05.798Z,14.60
2019-05-29T10:14:11.426Z,14.70
2019-05-29T10:15:19.125Z,14.80
2019-05-29T10:16:24.962Z,14.90
2019-05-29T10:17:31.314Z,15.10
2019-05-29T10:18:37.296Z,15.20
2019-05-29T10:19:43.441Z,15.20
2019-05-29T10:20:49.125Z,15.00
2019-05-29T10:21:56.830Z,14.90
2019-05-29T10:23:03.113Z,14.90
2019-05-29T10:24:09.296Z,14.70
2019-05-29T10:25:15.372Z,14.40
2019-05-29T10:26:21.973Z,14.50
2019-05-29T10:27:27.548Z,14.70
2019-05-29T10:28:49.918Z,14.70
2019-05-29T10:29:42.408Z,14.80
2019-05-29T10:30:50.111Z,14.40
2019-05-29T10:31:56.121Z,14.40
2019-05-29T10:33:02.443Z,14.60
2019-05-29T10:34:08.296Z,14.90
2019-05-29T10:35:15.361Z,15.20
2019-05-29T10:36:21.634Z,15.60
2019-05-29T10:37:28.058Z,15.80
2019-05-29T10:38:34.204Z,16.10
2019-05-29T10:39:40.861Z,16.40
2019-05-29T10:40:56.794Z,16.30
2019-05-29T10:41:54.299Z,16.60
2019-05-29T10:42:59.316Z,17.10
2019-05-29T10:44:05.839Z,17.80
2019-05-29T10:45:13.144Z,18.20
2019-05-29T10:46:18.931Z,18.60
2019-05-29T10:47:24.010Z,19.40
2019-05-29T10:48:30.390Z,19.90
2019-05-29T10:49:35.872Z,20.50
2019-05-29T10:50:41.656Z,21.40
2019-05-29T10:52:02.185Z,22.20
2019-05-29T10:52:55.370Z,22.30
2019-05-29T10:54:00.953Z,22.90
2019-05-29T10:55:07.541Z,23.30
2019-05-29T10:56:12.913Z,23.70
2019-05-29T10:57:18.618Z,24.00
2019-05-29T10:58:24.247Z,23.90
2019-05-29T10:59:30.221Z,23.50
2019-05-29T11:00:38.540Z,22.90
2019-05-29T11:01:47.092Z,22.30
2019-05-29T11:02:55.253Z,22.10
2019-05-29T11:04:00.812Z,21.50
2019-05-29T11:05:07.225Z,21.10
2019-05-29T11:06:13.397Z,20.80
2019-05-29T11:07:18.840Z,20.50
2019-05-29T11:08:24.902Z,20.10
2019-05-29T11:09:43.475Z,19.90
2019-05-29T11:10:37.077Z,19.80
2019-05-29T11:11:42.259Z,19.40
2019-05-29T11:12:48.502Z,19.10
2019-05-29T11:13:55.194Z,18.70
2019-05-29T11:15:01.599Z,18.20
2019-05-29T11:16:07.536Z,17.60
2019-05-29T11:17:13.631Z,17.20
2019-05-29T11:18:19.388Z,17.00
2019-05-29T11:19:26.196Z,16.70
2019-05-29T11:20:32.062Z,16.50
2019-05-29T11:21:38.089Z,16.10
2019-05-29T11:22:43.939Z,15.80
2019-05-29T11:23:49.919Z,15.70
2019-05-29T11:24:56.603Z,15.70
2019-05-29T11:26:02.980Z,15.70
2019-05-29T11:27:08.584Z,15.70
2019-05-29T11:28:14.996Z,15.70
2019-05-29T11:29:20.799Z,15.70
2019-05-29T11:30:27.686Z,15.80
2019-05-29T11:31:35.176Z,15.90
2019-05-29T11:32:42.133Z,16.00
2019-05-29T11:33:47.146Z,16.10
2019-05-29T11:34:53.799Z,16.00
2019-05-29T11:36:09.986Z,16.00
2019-05-29T11:37:08.063Z,15.90
2019-05-29T11:38:13.408Z,15.90
2019-05-29T11:39:18.928Z,15.80
2019-05-29T11:40:24.517Z,15.80
2019-05-29T11:41:30.667Z,15.90
2019-05-29T11:42:36.357Z,15.80
2019-05-29T11:43:42.219Z,15.70
2019-05-29T11:44:47.936Z,15.60
2019-05-29T11:45:53.713Z,15.40
2019-05-29T11:46:59.028Z,15.40
2019-05-29T11:48:06.456Z,15.50
2019-05-29T11:49:12.238Z,15.40
2019-05-29T11:50:19.965Z,15.20
2019-05-29T11:51:24.822Z,15.30
2019-05-29T11:52:42.500Z,15.40
2019-05-29T11:53:37.278Z,15.50
2019-05-29T11:54:43.597Z,15.50
2019-05-29T11:55:48.882Z,15.50
2019-05-29T11:56:55.575Z,15.10
2019-05-29T11:58:02.052Z,15.20
2019-05-29T11:59:08.379Z,15.30
2019-05-29T12:00:19.878Z,15.30
2019-05-29T12:01:21.997Z,15.30
2019-05-29T12:02:27.156Z,15.20
2019-05-29T12:03:33.298Z,15.20
2019-05-29T12:04:38.362Z,15.30
2019-05-29T12:05:44.202Z,15.40
2019-05-29T12:06:49.254Z,15.40
2019-05-29T12:07:55.556Z,15.40
2019-05-29T12:09:01.910Z,15.40
2019-05-29T12:10:08.905Z,15.50
2019-05-29T12:11:14.494Z,15.50
2019-05-29T12:12:21.083Z,15.40
2019-05-29T12:13:26.817Z,15.30
2019-05-29T12:14:33.135Z,15.40
2019-05-29T12:15:39.156Z,15.40
2019-05-29T12:16:44.887Z,15.40
2019-05-29T12:17:49.813Z,15.40
2019-05-29T12:18:55.674Z,15.30
2019-05-29T12:20:03.956Z,15.50
2019-05-29T12:21:09.007Z,15.60
2019-05-29T12:22:14.893Z,15.70
2019-05-29T12:23:26.400Z,15.80
2019-05-29T12:24:28.380Z,15.70
2019-05-29T12:25:35.133Z,15.60
2019-05-29T12:26:41.300Z,15.80
2019-05-29T12:27:47.879Z,15.60
2019-05-29T12:28:53.917Z,15.60
2019-05-29T12:30:03.312Z,15.60
2019-05-29T12:31:08.906Z,15.50
2019-05-29T12:32:15.260Z,15.50
2019-05-29T12:33:21.205Z,15.60
2019-05-29T12:34:27.883Z,15.60
2019-05-29T12:35:33.577Z,15.30
2019-05-29T12:36:39.432Z,15.30
2019-05-29T12:37:45.058Z,15.40
2019-05-29T12:38:50.810Z,15.50
2019-05-29T12:39:57.484Z,15.50
2019-05-29T12:41:03.891Z,15.50
2019-05-29T12:42:09.581Z,15.50
2019-05-29T12:43:26.607Z,15.60
2019-05-29T12:44:23.091Z,15.60
2019-05-29T12:45:29.246Z,15.60
2019-05-29T12:46:34.871Z,15.60
2019-05-29T12:47:41.248Z,15.70
2019-05-29T12:48:46.806Z,15.60
2019-05-29T12:49:53.714Z,15.70
2019-05-29T12:51:00.298Z,15.70
2019-05-29T12:52:08.118Z,15.70
2019-05-29T12:53:29.007Z,15.70
2019-05-29T12:54:21.800Z,15.70
2019-05-29T12:55:27.735Z,15.60
2019-05-29T12:56:34.149Z,15.50
2019-05-29T12:57:40.458Z,15.50
2019-05-29T12:58:46.838Z,15.50
2019-05-29T12:59:52.408Z,15.60
2019-05-29T13:01:00.750Z,15.60
2019-05-29T13:02:08.496Z,15.50
2019-05-29T13:03:14.901Z,15.60
2019-05-29T13:04:20.703Z,15.60
2019-05-29T13:05:27.265Z,15.50
2019-05-29T13:06:32.954Z,15.50
2019-05-29T13:07:39.245Z,15.70
2019-05-29T13:08:44.881Z,15.70
2019-05-29T13:09:51.347Z,15.90
2019-05-29T13:10:58.250Z,16.10
2019-05-29T13:12:04.858Z,16.30
2019-05-29T13:13:11.382Z,16.40
2019-05-29T13:14:17.589Z,16.40
2019-05-29T13:15:24.762Z,16.30
2019-05-29T13:16:31.181Z,16.10
2019-05-29T13:17:37.079Z,16.00
2019-05-29T13:18:43.443Z,16.00
2019-05-29T13:19:49.098Z,15.80
2019-05-29T13:20:56.536Z,15.90
2019-05-29T13:22:03.483Z,16.10
2019-05-29T13:23:09.574Z,16.20
2019-05-29T13:24:14.928Z,16.00
2019-05-29T13:25:21.183Z,16.10
2019-05-29T13:26:27.810Z,16.20
2019-05-29T13:27:34.082Z,16.10
2019-05-29T13:28:39.845Z,16.30
2019-05-29T13:29:46.571Z,16.40
2019-05-29T13:30:52.271Z,16.60
2019-05-29T13:32:00.176Z,16.80
2019-05-29T13:33:08.661Z,17.10
2019-05-29T13:34:14.074Z,17.10
2019-05-29T13:35:22.218Z,17.30
2019-05-29T13:36:27.558Z,17.40
2019-05-29T13:37:32.882Z,17.40
2019-05-29T13:38:39.204Z,17.30
2019-05-29T13:39:45.445Z,17.30
2019-05-29T13:40:51.916Z,17.20
2019-05-29T13:41:59.446Z,17.00
2019-05-29T13:43:13.083Z,16.80
2019-05-29T13:44:12.953Z,16.90
2019-05-29T13:45:19.677Z,16.90
2019-05-29T13:46:25.274Z,16.80
2019-05-29T13:47:31.664Z,17.00
2019-05-29T13:48:37.497Z,17.20
2019-05-29T13:49:43.217Z,17.40
2019-05-29T13:50:49.050Z,17.40
2019-05-29T13:51:55.495Z,17.50
2019-05-29T13:53:01.322Z,17.30
2019-05-29T13:54:14.052Z,17.40
2019-05-29T13:55:15.075Z,17.50
2019-05-29T13:56:24.246Z,17.40
2019-05-29T13:57:28.128Z,17.00
2019-05-29T13:58:34.654Z,16.80
2019-05-29T13:59:40.227Z,17.30
2019-05-29T14:00:46.974Z,17.80
2019-05-29T14:01:52.792Z,18.10
2019-05-29T14:03:00.175Z,18.40
2019-05-29T14:04:06.819Z,18.50
2019-05-29T14:05:14.079Z,18.80
2019-05-29T14:06:19.281Z,19.20
2019-05-29T14:07:25.426Z,19.60
2019-05-29T14:08:31.270Z,20.30
2019-05-29T14:09:37.468Z,20.90
2019-05-29T14:10:43.002Z,21.30
2019-05-29T14:11:49.531Z,21.80
2019-05-29T14:12:55.123Z,22.60
2019-05-29T14:14:01.389Z,22.90
2019-05-29T14:15:08.306Z,23.30
2019-05-29T14:16:14.641Z,23.30
2019-05-29T14:17:20.698Z,23.50
2019-05-29T14:18:26.982Z,23.80
2019-05-29T14:19:33.065Z,24.40
2019-05-29T14:20:39.636Z,24.40
2019-05-29T14:21:45.203Z,24.40
2019-05-29T14:22:51.685Z,24.30
2019-05-29T14:23:57.500Z,24.50
2019-05-29T14:25:03.277Z,24.40